sensor_id;sensor_type;location;lat;lon;timestamp;pressure;altitude;pressure_sealevel;temperature;humidity
24610;BME280;12758;47.890;11.694;2022-08-19T00:02:06;93444.25;;;21.43;68.97
24610;BME280;12758;47.890;11.694;2022-08-19T00:04:34;93445.31;;;21.56;68.27
24610;BME280;12758;47.890;11.694;2022-08-19T00:07:02;93433.66;;;21.30;69.37
24610;BME280;12758;47.890;11.694;2022-08-19T00:09:28;93431.94;;;21.51;68.78
24610;BME280;12758;47.890;11.694;2022-08-19T00:11:55;93427.53;;;21.57;68.04
24610;BME280;12758;47.890;11.694;2022-08-19T00:14:22;93429.59;;;21.49;68.73
24610;BME280;12758;47.890;11.694;2022-08-19T00:16:49;93437.41;;;21.58;68.18
24610;BME280;12758;47.890;11.694;2022-08-19T00:19:17;93442.13;;;21.61;68.02
24610;BME280;12758;47.890;11.694;2022-08-19T00:21:43;93444.84;;;21.09;70.13
24610;BME280;12758;47.890;11.694;2022-08-19T00:24:11;93444.03;;;21.15;69.62
24610;BME280;12758;47.890;11.694;2022-08-19T00:26:37;93440.94;;;21.06;70.67
24610;BME280;12758;47.890;11.694;2022-08-19T00:29:05;93441.72;;;21.07;70.43
24610;BME280;12758;47.890;11.694;2022-08-19T00:31:32;93444.03;;;21.15;70.00
24610;BME280;12758;47.890;11.694;2022-08-19T00:33:58;93433.81;;;21.12;70.04
24610;BME280;12758;47.890;11.694;2022-08-19T00:36:25;93419.19;;;21.12;69.70
24610;BME280;12758;47.890;11.694;2022-08-19T00:38:51;93413.81;;;20.94;70.82
24610;BME280;12758;47.890;11.694;2022-08-19T00:41:20;93403.50;;;21.02;70.52
24610;BME280;12758;47.890;11.694;2022-08-19T00:43:57;93401.06;;;20.55;72.28
24610;BME280;12758;47.890;11.694;2022-08-19T00:46:23;93400.97;;;19.74;75.65
24610;BME280;12758;47.890;11.694;2022-08-19T00:48:49;93398.31;;;20.52;72.82
24610;BME280;12758;47.890;11.694;2022-08-19T00:51:15;93397.81;;;20.71;71.22
24610;BME280;12758;47.890;11.694;2022-08-19T00:53:42;93397.63;;;21.00;70.19
24610;BME280;12758;47.890;11.694;2022-08-19T00:56:08;93382.25;;;20.25;73.29
24610;BME280;12758;47.890;11.694;2022-08-19T00:58:36;93387.72;;;20.39;74.25
24610;BME280;12758;47.890;11.694;2022-08-19T01:01:03;93382.25;;;20.25;74.16
24610;BME280;12758;47.890;11.694;2022-08-19T01:03:30;93374.50;;;20.79;71.29
24610;BME280;12758;47.890;11.694;2022-08-19T01:05:56;93364.72;;;20.71;71.27
24610;BME280;12758;47.890;11.694;2022-08-19T01:08:22;93383.78;;;20.37;72.66
24610;BME280;12758;47.890;11.694;2022-08-19T01:10:52;93395.84;;;20.72;70.83
24610;BME280;12758;47.890;11.694;2022-08-19T01:13:21;93399.78;;;20.67;71.10
24610;BME280;12758;47.890;11.694;2022-08-19T01:15:50;93406.47;;;20.73;70.55
24610;BME280;12758;47.890;11.694;2022-08-19T01:18:18;93426.56;;;20.77;70.54
24610;BME280;12758;47.890;11.694;2022-08-19T01:20:45;93432.38;;;20.86;69.74
24610;BME280;12758;47.890;11.694;2022-08-19T01:23:14;93444.75;;;20.57;71.85
24610;BME280;12758;47.890;11.694;2022-08-19T01:25:42;93447.47;;;20.64;70.79
24610;BME280;12758;47.890;11.694;2022-08-19T01:28:14;93446.53;;;20.92;69.92
24610;BME280;12758;47.890;11.694;2022-08-19T01:30:40;93438.94;;;20.33;72.17
24610;BME280;12758;47.890;11.694;2022-08-19T01:33:06;93440.50;;;20.34;71.79
24610;BME280;12758;47.890;11.694;2022-08-19T01:35:36;93435.97;;;19.60;74.50
24610;BME280;12758;47.890;11.694;2022-08-19T01:38:05;93436.59;;;20.24;72.84
24610;BME280;12758;47.890;11.694;2022-08-19T01:40:35;93434.41;;;19.44;76.16
24610;BME280;12758;47.890;11.694;2022-08-19T01:43:02;93440.69;;;19.48;75.60
24610;BME280;12758;47.890;11.694;2022-08-19T01:45:30;93446.59;;;19.50;75.36
24610;BME280;12758;47.890;11.694;2022-08-19T01:47:57;93446.97;;;19.88;74.42
24610;BME280;12758;47.890;11.694;2022-08-19T01:50:23;93443.00;;;19.89;73.33
24610;BME280;12758;47.890;11.694;2022-08-19T01:52:50;93437.13;;;19.87;74.69
24610;BME280;12758;47.890;11.694;2022-08-19T01:55:18;93429.56;;;20.16;72.58
24610;BME280;12758;47.890;11.694;2022-08-19T01:57:47;93440.63;;;19.98;73.06
24610;BME280;12758;47.890;11.694;2022-08-19T02:00:16;93435.06;;;20.20;72.33
24610;BME280;12758;47.890;11.694;2022-08-19T02:02:43;93446.03;;;20.34;71.22
24610;BME280;12758;47.890;11.694;2022-08-19T02:05:10;93446.06;;;20.27;71.05
24610;BME280;12758;47.890;11.694;2022-08-19T02:07:37;93472.81;;;20.30;71.33
24610;BME280;12758;47.890;11.694;2022-08-19T02:10:04;93469.63;;;20.42;70.93
24610;BME280;12758;47.890;11.694;2022-08-19T02:12:30;93463.44;;;20.10;71.94
24610;BME280;12758;47.890;11.694;2022-08-19T02:14:57;93464.16;;;20.35;70.98
24610;BME280;12758;47.890;11.694;2022-08-19T02:17:24;93464.00;;;20.71;70.37
24610;BME280;12758;47.890;11.694;2022-08-19T02:19:50;93461.72;;;20.59;70.19
24610;BME280;12758;47.890;11.694;2022-08-19T02:22:16;93449.25;;;20.15;72.09
24610;BME280;12758;47.890;11.694;2022-08-19T02:24:42;93436.75;;;19.78;74.00
24610;BME280;12758;47.890;11.694;2022-08-19T02:27:08;93430.78;;;20.05;73.32
24610;BME280;12758;47.890;11.694;2022-08-19T02:29:33;93429.28;;;19.53;74.94
24610;BME280;12758;47.890;11.694;2022-08-19T02:32:00;93426.53;;;19.61;75.17
24610;BME280;12758;47.890;11.694;2022-08-19T02:34:26;93419.47;;;19.67;73.62
24610;BME280;12758;47.890;11.694;2022-08-19T02:36:52;93416.31;;;19.54;74.06
24610;BME280;12758;47.890;11.694;2022-08-19T02:39:18;93414.69;;;19.85;72.89
24610;BME280;12758;47.890;11.694;2022-08-19T02:41:44;93415.53;;;19.68;74.39
24610;BME280;12758;47.890;11.694;2022-08-19T02:44:10;93418.66;;;19.77;73.64
24610;BME280;12758;47.890;11.694;2022-08-19T02:46:36;93416.34;;;19.22;75.33
24610;BME280;12758;47.890;11.694;2022-08-19T02:49:05;93408.00;;;19.86;72.69
24610;BME280;12758;47.890;11.694;2022-08-19T02:51:34;93408.47;;;19.13;75.33
24610;BME280;12758;47.890;11.694;2022-08-19T02:54:00;93402.56;;;18.86;76.79
24610;BME280;12758;47.890;11.694;2022-08-19T02:56:26;93402.16;;;19.41;75.13
24610;BME280;12758;47.890;11.694;2022-08-19T02:58:53;93401.38;;;19.66;73.38
24610;BME280;12758;47.890;11.694;2022-08-19T03:01:20;93394.28;;;19.50;73.34
24610;BME280;12758;47.890;11.694;2022-08-19T03:03:46;93408.44;;;19.77;72.82
24610;BME280;12758;47.890;11.694;2022-08-19T03:06:15;93412.25;;;20.09;71.60
24610;BME280;12758;47.890;11.694;2022-08-19T03:08:43;93399.56;;;20.36;70.56
24610;BME280;12758;47.890;11.694;2022-08-19T03:11:13;93395.94;;;20.54;69.64
24610;BME280;12758;47.890;11.694;2022-08-19T03:13:40;93396.72;;;20.58;68.82
24610;BME280;12758;47.890;11.694;2022-08-19T03:16:06;93393.13;;;20.61;68.90
24610;BME280;12758;47.890;11.694;2022-08-19T03:18:32;93401.66;;;20.84;68.28
24610;BME280;12758;47.890;11.694;2022-08-19T03:20:58;93405.72;;;20.65;68.45
24610;BME280;12758;47.890;11.694;2022-08-19T03:23:24;93413.56;;;20.74;68.40
24610;BME280;12758;47.890;11.694;2022-08-19T03:25:52;93406.97;;;20.54;68.48
24610;BME280;12758;47.890;11.694;2022-08-19T03:28:19;93407.38;;;20.48;68.83
24610;BME280;12758;47.890;11.694;2022-08-19T03:30:55;93415.19;;;20.61;68.51
24610;BME280;12758;47.890;11.694;2022-08-19T03:33:22;93415.22;;;20.57;68.34
24610;BME280;12758;47.890;11.694;2022-08-19T03:35:59;93411.31;;;20.55;68.79
24610;BME280;12758;47.890;11.694;2022-08-19T03:38:26;93410.47;;;20.61;68.57
24610;BME280;12758;47.890;11.694;2022-08-19T03:40:52;93406.69;;;20.27;69.58
24610;BME280;12758;47.890;11.694;2022-08-19T03:43:18;93397.59;;;20.33;69.35
24610;BME280;12758;47.890;11.694;2022-08-19T03:45:44;93401.88;;;20.52;69.13
24610;BME280;12758;47.890;11.694;2022-08-19T03:48:10;93397.13;;;20.53;68.52
24610;BME280;12758;47.890;11.694;2022-08-19T03:50:38;93388.41;;;20.65;68.13
24610;BME280;12758;47.890;11.694;2022-08-19T03:53:04;93388.41;;;20.65;68.17
24610;BME280;12758;47.890;11.694;2022-08-19T03:55:32;93384.53;;;20.52;68.81
24610;BME280;12758;47.890;11.694;2022-08-19T03:57:58;93396.28;;;20.63;67.90
24610;BME280;12758;47.890;11.694;2022-08-19T04:00:24;93403.28;;;20.78;68.05
24610;BME280;12758;47.890;11.694;2022-08-19T04:02:50;93406.38;;;20.87;67.27
24610;BME280;12758;47.890;11.694;2022-08-19T04:05:16;93411.13;;;20.83;67.59
24610;BME280;12758;47.890;11.694;2022-08-19T04:07:42;93405.50;;;20.98;67.11
24610;BME280;12758;47.890;11.694;2022-08-19T04:10:09;93411.75;;;21.05;66.88
24610;BME280;12758;47.890;11.694;2022-08-19T04:12:35;93405.13;;;20.96;65.96
24610;BME280;12758;47.890;11.694;2022-08-19T04:15:02;93407.63;;;19.77;71.51
24610;BME280;12758;47.890;11.694;2022-08-19T04:17:28;93407.53;;;20.13;70.84
24610;BME280;12758;47.890;11.694;2022-08-19T04:19:54;93412.19;;;20.30;69.50
24610;BME280;12758;47.890;11.694;2022-08-19T04:22:20;93418.34;;;20.63;68.42
24610;BME280;12758;47.890;11.694;2022-08-19T04:24:46;93427.75;;;20.69;67.37
24610;BME280;12758;47.890;11.694;2022-08-19T04:27:12;93436.38;;;20.78;67.31
24610;BME280;12758;47.890;11.694;2022-08-19T04:29:39;93429.22;;;20.88;67.32
24610;BME280;12758;47.890;11.694;2022-08-19T04:32:05;93436.47;;;20.67;67.42
24610;BME280;12758;47.890;11.694;2022-08-19T04:34:31;93434.19;;;20.41;68.76
24610;BME280;12758;47.890;11.694;2022-08-19T04:36:58;93449.91;;;20.47;68.36
24610;BME280;12758;47.890;11.694;2022-08-19T04:39:26;93443.56;;;20.65;67.39
24610;BME280;12758;47.890;11.694;2022-08-19T04:42:12;93438.38;;;20.74;67.54
24610;BME280;12758;47.890;11.694;2022-08-19T04:44:58;93453.88;;;20.39;68.80
24610;BME280;12758;47.890;11.694;2022-08-19T04:47:24;93445.13;;;20.62;67.77
24610;BME280;12758;47.890;11.694;2022-08-19T04:49:50;93449.03;;;20.72;67.24
24610;BME280;12758;47.890;11.694;2022-08-19T04:52:16;93446.63;;;20.81;67.12
24610;BME280;12758;47.890;11.694;2022-08-19T04:54:42;93457.22;;;20.83;66.81
24610;BME280;12758;47.890;11.694;2022-08-19T04:57:09;93453.69;;;20.82;66.76
24610;BME280;12758;47.890;11.694;2022-08-19T04:59:35;93456.78;;;20.91;66.42
24610;BME280;12758;47.890;11.694;2022-08-19T05:02:02;93459.16;;;20.97;66.36
24610;BME280;12758;47.890;11.694;2022-08-19T05:04:29;93454.78;;;20.96;66.17
24610;BME280;12758;47.890;11.694;2022-08-19T05:06:57;93451.38;;;20.77;66.80
24610;BME280;12758;47.890;11.694;2022-08-19T05:09:23;93455.44;;;20.55;67.51
24610;BME280;12758;47.890;11.694;2022-08-19T05:11:49;93468.88;;;20.31;69.47
24610;BME280;12758;47.890;11.694;2022-08-19T05:14:18;93467.38;;;20.05;71.08
24610;BME280;12758;47.890;11.694;2022-08-19T05:16:45;93458.00;;;19.81;72.22
24610;BME280;12758;47.890;11.694;2022-08-19T05:19:11;93457.13;;;20.06;70.68
24610;BME280;12758;47.890;11.694;2022-08-19T05:21:56;93455.63;;;19.76;72.44
24610;BME280;12758;47.890;11.694;2022-08-19T05:24:40;93456.38;;;20.01;70.34
24610;BME280;12758;47.890;11.694;2022-08-19T05:27:06;93462.69;;;19.98;70.76
24610;BME280;12758;47.890;11.694;2022-08-19T05:29:32;93450.47;;;19.99;71.14
24610;BME280;12758;47.890;11.694;2022-08-19T05:32:00;93440.63;;;20.02;71.04
24610;BME280;12758;47.890;11.694;2022-08-19T05:34:27;93446.13;;;20.13;70.45
24610;BME280;12758;47.890;11.694;2022-08-19T05:36:55;93437.31;;;20.46;68.52
24610;BME280;12758;47.890;11.694;2022-08-19T05:39:24;93439.69;;;20.52;68.09
24610;BME280;12758;47.890;11.694;2022-08-19T05:41:51;93433.28;;;20.69;67.37
24610;BME280;12758;47.890;11.694;2022-08-19T05:44:18;93437.94;;;20.79;67.35
24610;BME280;12758;47.890;11.694;2022-08-19T05:46:45;93436.38;;;20.78;67.34
24610;BME280;12758;47.890;11.694;2022-08-19T05:49:13;93442.03;;;20.50;69.71
24610;BME280;12758;47.890;11.694;2022-08-19T05:51:40;93446.13;;;20.13;72.26
24610;BME280;12758;47.890;11.694;2022-08-19T05:54:06;93451.66;;;19.95;73.33
24610;BME280;12758;47.890;11.694;2022-08-19T05:56:34;93444.22;;;19.70;75.18
24610;BME280;12758;47.890;11.694;2022-08-19T05:59:03;93450.16;;;19.33;77.38
24610;BME280;12758;47.890;11.694;2022-08-19T06:01:36;93453.28;;;19.35;77.28
24610;BME280;12758;47.890;11.694;2022-08-19T06:04:03;93454.81;;;19.86;73.16
24610;BME280;12758;47.890;11.694;2022-08-19T06:06:29;93463.78;;;20.26;70.79
24610;BME280;12758;47.890;11.694;2022-08-19T06:08:56;93466.09;;;20.38;69.32
24610;BME280;12758;47.890;11.694;2022-08-19T06:11:24;93468.84;;;20.45;68.81
24610;BME280;12758;47.890;11.694;2022-08-19T06:13:52;93463.31;;;20.45;69.28
24610;BME280;12758;47.890;11.694;2022-08-19T06:16:19;93466.19;;;20.13;71.85
24610;BME280;12758;47.890;11.694;2022-08-19T06:18:48;93467.34;;;20.16;71.47
24610;BME280;12758;47.890;11.694;2022-08-19T06:21:14;93458.75;;;19.92;73.80
24610;BME280;12758;47.890;11.694;2022-08-19T06:23:40;93460.31;;;19.93;73.71
24610;BME280;12758;47.890;11.694;2022-08-19T06:26:11;93450.94;;;19.66;74.89
24610;BME280;12758;47.890;11.694;2022-08-19T06:28:37;93454.88;;;19.43;76.60
24610;BME280;12758;47.890;11.694;2022-08-19T06:31:12;93452.50;;;19.02;78.66
24610;BME280;12758;47.890;11.694;2022-08-19T06:33:40;93463.38;;;18.52;81.21
24610;BME280;12758;47.890;11.694;2022-08-19T06:36:07;93462.56;;;18.55;81.88
24610;BME280;12758;47.890;11.694;2022-08-19T06:38:33;93461.78;;;18.48;82.56
24610;BME280;12758;47.890;11.694;2022-08-19T06:41:02;93465.81;;;18.86;80.94
24610;BME280;12758;47.890;11.694;2022-08-19T06:43:29;93450.94;;;19.26;77.50
24610;BME280;12758;47.890;11.694;2022-08-19T06:45:55;93457.63;;;19.07;80.34
24610;BME280;12758;47.890;11.694;2022-08-19T06:48:21;93448.56;;;19.11;79.05
24610;BME280;12758;47.890;11.694;2022-08-19T06:50:47;93446.19;;;18.98;80.26
24610;BME280;12758;47.890;11.694;2022-08-19T06:53:15;93459.34;;;18.32;84.23
24610;BME280;12758;47.890;11.694;2022-08-19T06:55:41;93465.03;;;17.91;86.12
24610;BME280;12758;47.890;11.694;2022-08-19T06:58:07;93477.16;;;17.83;87.82
24610;BME280;12758;47.890;11.694;2022-08-19T07:00:35;93478.09;;;18.05;88.49
24610;BME280;12758;47.890;11.694;2022-08-19T07:03:02;93473.00;;;18.10;88.09
24610;BME280;12758;47.890;11.694;2022-08-19T07:05:28;93474.91;;;17.99;88.40
24610;BME280;12758;47.890;11.694;2022-08-19T07:07:54;93482.34;;;17.95;89.57
24610;BME280;12758;47.890;11.694;2022-08-19T07:10:20;93476.13;;;18.09;88.00
24610;BME280;12758;47.890;11.694;2022-08-19T07:12:46;93482.06;;;18.14;88.67
24610;BME280;12758;47.890;11.694;2022-08-19T07:15:14;93481.66;;;18.20;88.52
24610;BME280;12758;47.890;11.694;2022-08-19T07:17:41;93481.59;;;18.02;88.92
24610;BME280;12758;47.890;11.694;2022-08-19T07:20:09;93479.66;;;18.09;89.21
24610;BME280;12758;47.890;11.694;2022-08-19T07:22:36;93477.47;;;18.40;87.87
24610;BME280;12758;47.890;11.694;2022-08-19T07:25:03;93468.22;;;19.02;82.87
24610;BME280;12758;47.890;11.694;2022-08-19T07:27:29;93463.50;;;19.09;81.93
24610;BME280;12758;47.890;11.694;2022-08-19T07:29:55;93463.53;;;19.24;80.41
24610;BME280;12758;47.890;11.694;2022-08-19T07:32:21;93465.03;;;18.82;84.15
24610;BME280;12758;47.890;11.694;2022-08-19T07:34:48;93479.06;;;18.55;86.99
24610;BME280;12758;47.890;11.694;2022-08-19T07:37:14;93465.78;;;18.72;86.02
24610;BME280;12758;47.890;11.694;2022-08-19T07:39:40;93457.22;;;19.13;82.79
24610;BME280;12758;47.890;11.694;2022-08-19T07:42:08;93459.56;;;19.53;78.83
24610;BME280;12758;47.890;11.694;2022-08-19T07:44:35;93466.66;;;19.76;76.89
24610;BME280;12758;47.890;11.694;2022-08-19T07:47:02;93469.81;;;19.78;77.44
24610;BME280;12758;47.890;11.694;2022-08-19T07:49:29;93473.72;;;19.63;77.76
24610;BME280;12758;47.890;11.694;2022-08-19T07:51:57;93476.09;;;19.46;79.75
24610;BME280;12758;47.890;11.694;2022-08-19T07:54:25;93473.72;;;19.48;80.13
24610;BME280;12758;47.890;11.694;2022-08-19T07:56:52;93472.09;;;18.87;82.38
24610;BME280;12758;47.890;11.694;2022-08-19T07:59:19;93474.47;;;18.88;82.25
24610;BME280;12758;47.890;11.694;2022-08-19T08:01:46;93476.78;;;18.72;84.01
24610;BME280;12758;47.890;11.694;2022-08-19T08:04:13;93490.94;;;18.81;85.18
24610;BME280;12758;47.890;11.694;2022-08-19T08:06:58;93479.25;;;19.20;82.08
24610;BME280;12758;47.890;11.694;2022-08-19T08:09:43;93478.44;;;19.23;81.51
24610;BME280;12758;47.890;11.694;2022-08-19T08:12:11;93483.94;;;19.51;79.29
24610;BME280;12758;47.890;11.694;2022-08-19T08:14:41;93488.69;;;19.44;80.22
24610;BME280;12758;47.890;11.694;2022-08-19T08:17:09;93478.84;;;19.46;80.65
24610;BME280;12758;47.890;11.694;2022-08-19T08:19:36;93492.59;;;19.11;82.58
24610;BME280;12758;47.890;11.694;2022-08-19T08:22:03;93496.91;;;19.19;83.38
24610;BME280;12758;47.890;11.694;2022-08-19T08:24:31;93486.31;;;19.49;79.75
24610;BME280;12758;47.890;11.694;2022-08-19T08:26:58;93492.63;;;19.39;80.58
24610;BME280;12758;47.890;11.694;2022-08-19T08:29:25;93494.94;;;18.94;82.96
24610;BME280;12758;47.890;11.694;2022-08-19T08:31:51;93498.03;;;18.82;83.87
24610;BME280;12758;47.890;11.694;2022-08-19T08:34:17;93496.50;;;19.13;82.51
24610;BME280;12758;47.890;11.694;2022-08-19T08:36:44;93499.28;;;19.24;81.47
24610;BME280;12758;47.890;11.694;2022-08-19T08:39:12;93502.81;;;19.17;81.77
24610;BME280;12758;47.890;11.694;2022-08-19T08:41:44;93491.84;;;19.42;79.30
24610;BME280;12758;47.890;11.694;2022-08-19T08:44:13;93502.75;;;18.89;82.41
24610;BME280;12758;47.890;11.694;2022-08-19T08:46:43;93511.78;;;18.78;84.11
24610;BME280;12758;47.890;11.694;2022-08-19T08:49:18;93511.44;;;18.94;83.55
24610;BME280;12758;47.890;11.694;2022-08-19T08:51:47;93508.25;;;18.85;83.60
24610;BME280;12758;47.890;11.694;2022-08-19T08:54:17;93512.88;;;18.59;85.54
24610;BME280;12758;47.890;11.694;2022-08-19T08:56:45;93512.78;;;18.45;86.26
24610;BME280;12758;47.890;11.694;2022-08-19T08:59:18;93513.47;;;18.21;87.72
24610;BME280;12758;47.890;11.694;2022-08-19T09:01:45;93522.09;;;18.23;88.78
24610;BME280;12758;47.890;11.694;2022-08-19T09:04:11;93530.72;;;18.18;89.13
24610;BME280;12758;47.890;11.694;2022-08-19T09:06:40;93533.94;;;18.30;88.92
24610;BME280;12758;47.890;11.694;2022-08-19T09:09:14;93528.31;;;18.05;89.20
24610;BME280;12758;47.890;11.694;2022-08-19T09:11:56;93540.94;;;18.17;89.97
24610;BME280;12758;47.890;11.694;2022-08-19T09:14:35;93537.47;;;18.31;88.24
24610;BME280;12758;47.890;11.694;2022-08-19T09:17:06;93547.38;;;18.50;88.49
24610;BME280;12758;47.890;11.694;2022-08-19T09:19:34;93530.16;;;18.63;86.14
24610;BME280;12758;47.890;11.694;2022-08-19T09:22:00;93535.63;;;18.56;87.03
24610;BME280;12758;47.890;11.694;2022-08-19T09:24:26;93529.44;;;18.74;85.65
24610;BME280;12758;47.890;11.694;2022-08-19T09:26:52;93524.00;;;18.95;84.41
24610;BME280;12758;47.890;11.694;2022-08-19T09:29:19;93507.84;;;18.76;84.73
24610;BME280;12758;47.890;11.694;2022-08-19T09:31:46;93510.59;;;18.79;85.05
24610;BME280;12758;47.890;11.694;2022-08-19T09:34:12;93515.34;;;18.93;85.56
24610;BME280;12758;47.890;11.694;2022-08-19T09:36:38;93509.88;;;19.29;83.55
24610;BME280;12758;47.890;11.694;2022-08-19T09:39:05;93498.91;;;19.50;80.95
24610;BME280;12758;47.890;11.694;2022-08-19T09:41:32;93491.81;;;19.39;81.35
24610;BME280;12758;47.890;11.694;2022-08-19T09:43:59;93495.78;;;19.52;80.90
24610;BME280;12758;47.890;11.694;2022-08-19T09:46:27;93500.81;;;19.03;82.50
24610;BME280;12758;47.890;11.694;2022-08-19T09:48:54;93515.41;;;19.18;83.53
24610;BME280;12758;47.890;11.694;2022-08-19T09:51:22;93525.56;;;19.03;83.60
24610;BME280;12758;47.890;11.694;2022-08-19T09:53:49;93527.53;;;18.99;84.19
24610;BME280;12758;47.890;11.694;2022-08-19T09:56:16;93514.63;;;19.61;79.53
24610;BME280;12758;47.890;11.694;2022-08-19T09:58:43;93522.13;;;19.42;81.00
24610;BME280;12758;47.890;11.694;2022-08-19T10:01:16;93524.06;;;19.45;80.65
24610;BME280;12758;47.890;11.694;2022-08-19T10:03:42;93518.56;;;19.60;80.29
24610;BME280;12758;47.890;11.694;2022-08-19T10:06:08;93532.69;;;19.26;82.36
24610;BME280;12758;47.890;11.694;2022-08-19T10:08:36;93544.50;;;19.30;83.01
24610;BME280;12758;47.890;11.694;2022-08-19T10:11:03;93531.16;;;19.46;81.97
24610;BME280;12758;47.890;11.694;2022-08-19T10:13:30;93522.50;;;19.51;81.78
24610;BME280;12758;47.890;11.694;2022-08-19T10:16:03;93522.53;;;19.76;79.71
24610;BME280;12758;47.890;11.694;2022-08-19T10:18:30;93521.75;;;19.65;80.82
24610;BME280;12758;47.890;11.694;2022-08-19T10:21:03;93506.78;;;19.81;79.42
24610;BME280;12758;47.890;11.694;2022-08-19T10:23:33;93508.34;;;19.57;80.82
24610;BME280;12758;47.890;11.694;2022-08-19T10:25:59;93498.94;;;19.75;80.08
24610;BME280;12758;47.890;11.694;2022-08-19T10:28:25;93502.06;;;19.67;79.61
24610;BME280;12758;47.890;11.694;2022-08-19T10:30:51;93503.25;;;19.59;79.65
24610;BME280;12758;47.890;11.694;2022-08-19T10:33:18;93518.56;;;19.31;83.08
24610;BME280;12758;47.890;11.694;2022-08-19T10:35:45;93512.28;;;19.27;81.59
24610;BME280;12758;47.890;11.694;2022-08-19T10:38:12;93513.44;;;19.54;81.49
24610;BME280;12758;47.890;11.694;2022-08-19T10:40:38;93509.94;;;19.79;79.63
24610;BME280;12758;47.890;11.694;2022-08-19T10:43:04;93506.38;;;20.04;80.26
24610;BME280;12758;47.890;11.694;2022-08-19T10:45:30;93497.34;;;19.78;79.57
24610;BME280;12758;47.890;11.694;2022-08-19T10:47:56;93504.81;;;19.67;79.71
24610;BME280;12758;47.890;11.694;2022-08-19T10:50:22;93494.97;;;19.73;80.25
24610;BME280;12758;47.890;11.694;2022-08-19T10:53:07;93492.63;;;19.78;79.95
24610;BME280;12758;47.890;11.694;2022-08-19T10:55:34;93491.41;;;19.58;80.37
24610;BME280;12758;47.890;11.694;2022-08-19T10:58:20;93493.38;;;19.93;80.58
24610;BME280;12758;47.890;11.694;2022-08-19T11:00:51;93482.31;;;20.15;80.67
24610;BME280;12758;47.890;11.694;2022-08-19T11:03:18;93475.97;;;20.25;76.91
24610;BME280;12758;47.890;11.694;2022-08-19T11:05:44;93469.66;;;20.28;76.53
24610;BME280;12758;47.890;11.694;2022-08-19T11:08:11;93468.88;;;20.31;76.40
24610;BME280;12758;47.890;11.694;2022-08-19T11:10:40;93460.97;;;20.40;75.96
24610;BME280;12758;47.890;11.694;2022-08-19T11:13:06;93466.63;;;19.94;77.31
24610;BME280;12758;47.890;11.694;2022-08-19T11:15:32;93475.31;;;19.71;79.55
24610;BME280;12758;47.890;11.694;2022-08-19T11:17:59;93470.59;;;19.82;79.86
24610;BME280;12758;47.890;11.694;2022-08-19T11:20:25;93474.50;;;19.95;78.96
24610;BME280;12758;47.890;11.694;2022-08-19T11:22:52;93472.84;;;20.23;79.72
24610;BME280;12758;47.890;11.694;2022-08-19T11:25:19;93470.44;;;20.36;76.90
24610;BME280;12758;47.890;11.694;2022-08-19T11:27:45;93467.97;;;20.63;76.02
24610;BME280;12758;47.890;11.694;2022-08-19T11:30:13;93455.38;;;20.65;75.43
24610;BME280;12758;47.890;11.694;2022-08-19T11:32:39;93459.31;;;20.68;74.89
24610;BME280;12758;47.890;11.694;2022-08-19T11:35:06;93458.59;;;20.42;75.67
24610;BME280;12758;47.890;11.694;2022-08-19T11:37:32;93465.69;;;20.43;76.08
24610;BME280;12758;47.890;11.694;2022-08-19T11:40:05;93464.91;;;20.39;75.48
24610;BME280;12758;47.890;11.694;2022-08-19T11:42:32;93463.69;;;20.44;76.10
24610;BME280;12758;47.890;11.694;2022-08-19T11:45:17;93463.34;;;20.31;76.20
24610;BME280;12758;47.890;11.694;2022-08-19T11:47:43;93462.53;;;20.52;75.74
24610;BME280;12758;47.890;11.694;2022-08-19T11:50:09;93461.72;;;20.44;75.20
24610;BME280;12758;47.890;11.694;2022-08-19T11:52:35;93459.03;;;20.34;75.83
24610;BME280;12758;47.890;11.694;2022-08-19T11:55:02;93468.06;;;20.38;76.13
24610;BME280;12758;47.890;11.694;2022-08-19T11:57:28;93461.31;;;20.50;74.88
24610;BME280;12758;47.890;11.694;2022-08-19T11:59:55;93465.47;;;20.93;74.91
24610;BME280;12758;47.890;11.694;2022-08-19T12:02:21;93452.88;;;20.85;73.54
24610;BME280;12758;47.890;11.694;2022-08-19T12:04:48;93451.22;;;20.99;73.91
24610;BME280;12758;47.890;11.694;2022-08-19T12:07:14;93458.75;;;20.94;74.18
24610;BME280;12758;47.890;11.694;2022-08-19T12:09:41;93460.91;;;20.62;74.25
24610;BME280;12758;47.890;11.694;2022-08-19T12:12:07;93473.44;;;20.77;75.60
24610;BME280;12758;47.890;11.694;2022-08-19T12:14:33;93473.56;;;20.45;75.83
24610;BME280;12758;47.890;11.694;2022-08-19T12:17:01;93470.78;;;20.48;76.00
24610;BME280;12758;47.890;11.694;2022-08-19T12:19:29;93475.19;;;20.24;76.63
24610;BME280;12758;47.890;11.694;2022-08-19T12:21:58;93476.78;;;20.18;76.82
24610;BME280;12758;47.890;11.694;2022-08-19T12:24:25;93490.19;;;20.09;77.23
24610;BME280;12758;47.890;11.694;2022-08-19T12:26:51;93495.28;;;20.25;77.86
24610;BME280;12758;47.890;11.694;2022-08-19T12:29:17;93491.75;;;20.21;77.12
24610;BME280;12758;47.890;11.694;2022-08-19T12:31:43;93490.19;;;20.20;76.99
24610;BME280;12758;47.890;11.694;2022-08-19T12:34:09;93483.41;;;20.53;77.08
24610;BME280;12758;47.890;11.694;2022-08-19T12:36:35;93481.78;;;20.63;76.12
24610;BME280;12758;47.890;11.694;2022-08-19T12:39:01;93486.59;;;21.18;75.79
24610;BME280;12758;47.890;11.694;2022-08-19T12:41:28;93473.81;;;21.46;74.56
24610;BME280;12758;47.890;11.694;2022-08-19T12:43:54;93476.41;;;21.08;74.68
24610;BME280;12758;47.890;11.694;2022-08-19T12:46:20;93464.16;;;21.12;74.17
24610;BME280;12758;47.890;11.694;2022-08-19T12:48:46;93470.19;;;20.97;73.69
24610;BME280;12758;47.890;11.694;2022-08-19T12:51:15;93471.25;;;20.29;76.15
24610;BME280;12758;47.890;11.694;2022-08-19T12:53:42;93469.50;;;20.78;75.12